createdAt,value
2023-09-08T00:03:57.035Z,100189.19
2023-09-08T00:08:58.974Z,100183.69
2023-09-08T00:14:01.006Z,100182.25
2023-09-08T00:19:02.944Z,100177.44
2023-09-08T00:24:08.127Z,100170.13
2023-09-08T00:29:10.138Z,100171.66
2023-09-08T00:34:12.250Z,100185.44
2023-09-08T00:39:14.291Z,100176.47
2023-09-08T00:44:16.494Z,100174.31
2023-09-08T00:49:18.681Z,100180.81
2023-09-08T00:54:20.659Z,100180.25
2023-09-08T00:59:22.600Z,100184.97
2023-09-08T01:04:24.731Z,100182.69
2023-09-08T01:09:27.813Z,100173.47
2023-09-08T01:14:30.690Z,100180.25
2023-09-08T01:19:32.630Z,100187.41
2023-09-08T01:24:59.436Z,100185.13
2023-09-08T01:30:06.512Z,100184.66
2023-09-08T01:35:09.050Z,100189.06
2023-09-08T01:40:11.874Z,100181.06
2023-09-08T01:45:13.798Z,100177.22
2023-09-08T01:50:22.423Z,100180.28
2023-09-08T01:55:24.333Z,100179.78
2023-09-08T02:00:26.349Z,100174.63
2023-09-08T02:05:28.770Z,100171.88
2023-09-08T02:10:30.802Z,100174.94
2023-09-08T02:15:35.801Z,100181.56
2023-09-08T02:20:37.812Z,100180.00
2023-09-08T02:25:39.680Z,100187.16
2023-09-08T02:30:41.652Z,100185.34
2023-09-08T02:35:44.564Z,100182.16
2023-09-08T02:40:47.434Z,100190.47
2023-09-08T02:45:49.603Z,100189.75
2023-09-08T02:50:54.872Z,100190.53
2023-09-08T02:55:57.517Z,100186.84
2023-09-08T03:00:59.387Z,100186.81
2023-09-08T03:06:04.377Z,100191.22
2023-09-08T03:11:07.435Z,100186.66
2023-09-08T03:16:10.026Z,100181.16
2023-09-08T03:21:15.675Z,100182.63
2023-09-08T03:26:17.549Z,100179.94
2023-09-08T03:31:19.649Z,100184.22
2023-09-08T03:36:21.750Z,100178.03
2023-09-08T03:41:23.751Z,100182.38
2023-09-08T03:46:26.620Z,100175.72
2023-09-08T03:51:29.265Z,100173.13
2023-09-08T03:56:31.534Z,100177.44
2023-09-08T04:01:33.649Z,100171.06
2023-09-08T04:06:35.601Z,100172.59
2023-09-08T04:11:37.644Z,100176.25
2023-09-08T04:16:39.637Z,100176.81
2023-09-08T04:21:42.411Z,100177.66
2023-09-08T04:26:44.304Z,100175.69
2023-09-08T04:31:46.707Z,100181.75
2023-09-08T04:36:48.872Z,100182.69
2023-09-08T04:41:50.837Z,100181.78
2023-09-08T04:46:53.833Z,100176.31
2023-09-08T04:51:56.067Z,100183.34
2023-09-08T04:57:11.631Z,100195.22
2023-09-08T05:02:20.975Z,100189.91
2023-09-08T05:07:23.196Z,100190.34
2023-09-08T05:12:25.922Z,100193.53
2023-09-08T05:17:28.172Z,100193.69
2023-09-08T05:22:30.248Z,100195.78
2023-09-08T05:27:33.171Z,100208.03
2023-09-08T05:32:35.369Z,100210.47
2023-09-08T05:37:37.606Z,100212.31
2023-09-08T05:42:39.569Z,100205.19
2023-09-08T05:47:41.683Z,100207.81
2023-09-08T05:52:44.695Z,100223.59
2023-09-08T05:57:47.532Z,100227.56
2023-09-08T06:02:49.714Z,100228.94
2023-09-08T06:08:05.887Z,100222.81
2023-09-08T06:13:11.435Z,100227.72
2023-09-08T06:18:14.960Z,100228.91
2023-09-08T06:23:21.534Z,100223.56
2023-09-08T06:28:24.908Z,100224.28
2023-09-08T06:33:27.241Z,100227.59
2023-09-08T06:38:32.778Z,100226.06
2023-09-08T06:43:36.978Z,100223.38
2023-09-08T06:48:44.400Z,100223.91
2023-09-08T06:53:56.165Z,100219.31
2023-09-08T06:59:01.464Z,100230.75
2023-09-08T07:04:04.903Z,100222.16
2023-09-08T07:09:07.788Z,100222.41
2023-09-08T07:14:09.968Z,100219.06
2023-09-08T07:19:12.471Z,100212.34
2023-09-08T07:24:15.364Z,100208.13
2023-09-08T07:29:18.883Z,100209.56
2023-09-08T07:34:21.387Z,100198.69
2023-09-08T07:39:23.484Z,100207.91
2023-09-08T07:44:26.085Z,100201.44
2023-09-08T07:49:28.445Z,100202.97
2023-09-08T07:54:30.689Z,100192.97
2023-09-08T07:59:58.089Z,100194.47
2023-09-08T08:05:00.212Z,100193.63
2023-09-08T08:10:02.356Z,100194.31
2023-09-08T08:15:05.832Z,100185.72
2023-09-08T08:20:10.602Z,100183.84
2023-09-08T08:25:16.996Z,100188.13
2023-09-08T08:30:19.288Z,100180.34
2023-09-08T08:35:21.996Z,100177.56
2023-09-08T08:40:28.262Z,100177.72
2023-09-08T08:45:31.578Z,100170.91
2023-09-08T08:50:34.122Z,100172.00
2023-09-08T08:55:39.365Z,100168.84
2023-09-08T09:00:42.167Z,100162.34
2023-09-08T09:05:48.399Z,100164.00
2023-09-08T09:10:52.978Z,100161.81
2023-09-08T09:16:01.069Z,100162.72
2023-09-08T09:21:03.890Z,100149.78
2023-09-08T09:26:06.090Z,100151.09
2023-09-08T09:31:08.422Z,100148.69
2023-09-08T09:36:10.590Z,100142.03
2023-09-08T09:41:13.467Z,100134.91
2023-09-08T09:46:16.820Z,100136.19
2023-09-08T09:51:21.046Z,100136.38
2023-09-08T09:56:25.071Z,100124.53
2023-09-08T10:01:28.158Z,100123.66
2023-09-08T10:06:33.252Z,100119.50
2023-09-08T10:11:40.581Z,100121.63
2023-09-08T10:16:45.714Z,100115.34
2023-09-08T10:21:49.858Z,100115.44
2023-09-08T10:27:01.814Z,100109.47
2023-09-08T10:32:05.362Z,100106.59
2023-09-08T10:37:23.046Z,100103.31
2023-09-08T10:42:28.543Z,100088.44
2023-09-08T10:47:38.046Z,100083.63
2023-09-08T10:52:40.253Z,100073.28
2023-09-08T10:57:46.742Z,100074.69
2023-09-08T11:02:52.239Z,100082.72
2023-09-08T11:07:55.161Z,100074.31
2023-09-08T11:12:57.301Z,100078.22
2023-09-08T11:18:06.453Z,100079.28
2023-09-08T11:23:08.731Z,100068.53
2023-09-08T11:28:11.163Z,100067.78
2023-09-08T11:33:28.237Z,100061.13
2023-09-08T11:38:31.177Z,100060.34
2023-09-08T11:43:36.069Z,100055.19
2023-09-08T11:48:38.900Z,100054.44
2023-09-08T11:53:42.455Z,100047.38
2023-09-08T11:58:45.794Z,100038.00
2023-09-08T12:03:55.404Z,100031.63
2023-09-08T12:09:04.106Z,100033.38
2023-09-08T12:14:10.957Z,100028.31
2023-09-08T12:19:32.626Z,100025.72
2023-09-08T12:24:58.086Z,100022.38
2023-09-08T12:30:02.141Z,100008.91
2023-09-08T12:35:05.789Z,100012.53
2023-09-08T12:40:08.703Z,100004.28
2023-09-08T12:45:11.039Z,99999.50
2023-09-08T12:50:14.581Z,99998.34
2023-09-08T12:55:17.074Z,99994.44
2023-09-08T13:00:19.247Z,99997.38
2023-09-08T13:05:21.569Z,99990.50
2023-09-08T13:10:23.764Z,99994.66
2023-09-08T13:15:25.895Z,99988.66
2023-09-08T13:20:28.026Z,99987.75
2023-09-08T13:25:31.090Z,99982.59
2023-09-08T13:30:33.315Z,99981.97
2023-09-08T13:35:35.452Z,99972.44
2023-09-08T13:40:37.592Z,99963.72
2023-09-08T13:45:39.741Z,99965.31
2023-09-08T13:50:44.343Z,99953.72
2023-09-08T13:55:50.511Z,99954.47
2023-09-08T14:00:54.331Z,99954.50
2023-09-08T14:06:02.988Z,99954.06
2023-09-08T14:11:15.354Z,99953.81
2023-09-08T14:16:21.459Z,99950.50
2023-09-08T14:21:23.610Z,99951.28
2023-09-08T14:26:26.928Z,99942.78
2023-09-08T14:31:29.129Z,99951.94
2023-09-08T14:36:31.328Z,99935.47
2023-09-08T14:41:33.562Z,99935.81
2023-09-08T14:46:35.753Z,99934.22
2023-09-08T14:51:37.867Z,99933.81
2023-09-08T14:56:39.934Z,99925.97
2023-09-08T15:01:44.397Z,99932.41
2023-09-08T15:06:46.821Z,99923.69
2023-09-08T15:11:49.052Z,99920.00
2023-09-08T15:16:51.239Z,99928.66
2023-09-08T15:21:53.388Z,99938.69
2023-09-08T15:26:55.567Z,99935.25
2023-09-08T15:31:58.896Z,99927.28
2023-09-08T15:37:01.614Z,99930.66
2023-09-08T15:42:05.247Z,99925.78
2023-09-08T15:47:07.421Z,99927.06
2023-09-08T15:52:16.634Z,99924.69
2023-09-08T15:57:19.262Z,99929.69
2023-09-08T16:02:21.395Z,99926.81
2023-09-08T16:07:25.154Z,99927.03
2023-09-08T16:12:27.554Z,99928.31
2023-09-08T16:17:29.842Z,99924.22
2023-09-08T16:22:32.031Z,99921.16
2023-09-08T16:28:24.967Z,99926.09
2023-09-08T16:33:27.094Z,99918.88
2023-09-08T16:38:29.271Z,99923.41
2023-09-08T16:43:31.631Z,99919.72
2023-09-08T16:48:33.902Z,99918.25
2023-09-08T16:53:36.180Z,99922.81
2023-09-08T16:58:38.556Z,99923.63
2023-09-08T17:03:41.154Z,99930.41
2023-09-08T17:08:43.765Z,99925.91
2023-09-08T17:13:45.851Z,99926.88
2023-09-08T17:18:48.075Z,99928.09
2023-09-08T17:23:50.411Z,99939.31
2023-09-08T17:28:53.133Z,99934.34
2023-09-08T17:33:55.198Z,99933.66
2023-09-08T17:39:06.357Z,99941.53
2023-09-08T17:44:08.542Z,99939.69
2023-09-08T17:49:10.913Z,99939.31
2023-09-08T17:54:13.227Z,99951.84
2023-09-08T17:59:15.455Z,99952.16
2023-09-08T18:04:17.740Z,99954.00
2023-09-08T18:09:20.083Z,99959.22
2023-09-08T18:14:22.500Z,99965.03
2023-09-08T18:19:24.584Z,99968.78
2023-09-08T18:24:26.907Z,99976.47
2023-09-08T18:29:29.921Z,99979.28
2023-09-08T18:34:31.975Z,99983.78
2023-09-08T18:39:34.535Z,99996.94
2023-09-08T18:44:43.389Z,99994.91
2023-09-08T18:49:45.738Z,100011.97
2023-09-08T18:54:48.509Z,100015.25
2023-09-08T18:59:51.539Z,100011.22
2023-09-08T19:04:53.817Z,100015.63
2023-09-08T19:09:56.506Z,100020.50
2023-09-08T19:14:59.014Z,100024.56
2023-09-08T19:20:01.449Z,100024.28
2023-09-08T19:25:03.829Z,100026.84
2023-09-08T19:30:12.035Z,100026.69
2023-09-08T19:35:14.196Z,100030.56
2023-09-08T19:40:16.546Z,100032.38
2023-09-08T19:45:18.990Z,100030.94
2023-09-08T19:50:21.401Z,100031.81
2023-09-08T19:55:24.023Z,100029.66
2023-09-08T20:00:26.206Z,100034.16
2023-09-08T20:05:28.995Z,100031.00
2023-09-08T20:10:31.141Z,100032.38
2023-09-08T20:15:36.528Z,100035.88
2023-09-08T20:20:38.607Z,100031.88
2023-09-08T20:25:40.926Z,100033.88
2023-09-08T20:30:43.094Z,100034.69
2023-09-08T20:35:45.613Z,100041.38
2023-09-08T20:41:13.963Z,100040.13
2023-09-08T20:46:16.258Z,100049.78
2023-09-08T20:51:21.108Z,100053.38
2023-09-08T20:56:23.236Z,100051.59
2023-09-08T21:01:25.354Z,100047.81
2023-09-08T21:06:27.814Z,100044.03
2023-09-08T21:11:30.028Z,100044.56
2023-09-08T21:16:32.138Z,100049.41
2023-09-08T21:21:34.396Z,100051.91
2023-09-08T21:26:36.576Z,100047.31
2023-09-08T21:31:38.725Z,100045.38
2023-09-08T21:36:41.164Z,100043.13
2023-09-08T21:41:43.287Z,100044.03
2023-09-08T21:46:45.371Z,100050.81
2023-09-08T21:51:48.872Z,100046.50
2023-09-08T21:56:51.879Z,100054.16
2023-09-08T22:01:54.227Z,100050.25
2023-09-08T22:06:56.836Z,100053.97
2023-09-08T22:11:58.963Z,100047.22
2023-09-08T22:17:01.046Z,100054.72
2023-09-08T22:22:03.456Z,100046.53
2023-09-08T22:27:05.784Z,100046.03
2023-09-08T22:32:16.633Z,100051.66
2023-09-08T22:37:18.841Z,100049.09
2023-09-08T22:42:20.962Z,100038.78
2023-09-08T22:47:23.062Z,100039.31
2023-09-08T22:52:25.291Z,100039.22
2023-09-08T22:57:27.560Z,100044.31
2023-09-08T23:02:30.527Z,100046.56
2023-09-08T23:07:32.731Z,100047.91
2023-09-08T23:12:34.937Z,100051.41
2023-09-08T23:17:37.193Z,100057.63
2023-09-08T23:22:39.490Z,100052.25
2023-09-08T23:27:41.658Z,100050.81
2023-09-08T23:32:45.977Z,100050.09
2023-09-08T23:37:49.015Z,100046.69
2023-09-08T23:42:51.192Z,100038.41
2023-09-08T23:47:53.969Z,100039.63
2023-09-08T23:52:56.107Z,100048.50
2023-09-08T23:57:58.215Z,100040.34
